Nearby METAR Reports

 

KPMD - Palmdale, California, USA
Distance from station: NNE 12mi, 19km
Updated: Mon, 25-Jun-2018 5:53am PDT
Clear
Clear
 Wind from S
Wind: S 9 mph , 15 km/h
Temperature: 68°F , 20°C
Dew Point: 39°F , 4°C
Humidity: 35%
Barometer: 29.94 inHg , 1013.9 hPa
Clouds: Clear
Visibility: 10 miles , 16 km
2018/06/25 12:53 KPMD 251253Z 19008KT 10SM CLR 20/04 A2994 RMK AO2 SLP109 T02000044
KWJF - Lancaster/Fox, California, USA
Distance from station: N 17mi, 27km
Updated: Mon, 25-Jun-2018 5:56am PDT
Clear
Clear
 Wind from W
Wind: W 10 mph , 17 km/h
Temperature: 68°F , 20°C
Dew Point: 34°F , 1°C
Humidity: 28%
Barometer: 29.93 inHg , 1013.5 hPa
Clouds: Clear
Visibility: 10 miles , 16 km
2018/06/25 12:56 KWJF 251256Z AUTO 26009KT 10SM CLR 20/01 A2993 RMK AO2 SLP117 T02000011
 
KMWS - Mount Wilson, California, USA
Distance from station: SSE 18mi, 30km
Updated: Wed, 13-May-2015 6:45am PDT
NOT Current

 Wind from S
Wind: S 3 mph , 6 km/h, Gust: 5 mph , 7 km/h
Temperature: 43°F , 6°C
Dew Point: -0°F , -18°C
Humidity: 16%
2015/05/13 13:45 KMWS 131345Z 18003G04KT 06/M18 RMK SNOW DEPTH 1.00
KWHP - La / Whiteman, California, USA
Distance from station: SW 21mi, 34km
Updated: Sun, 24-Jun-2018 7:50pm PDT
NOT Current
Clear
Clear
 Wind from ESE
Wind: ESE 7 mph , 11 km/h
Temperature: 70°F , 21°C
Dew Point: 55°F , 13°C
Humidity: 60%
Barometer: 29.94 inHg , 1013.9 hPa
Clouds: Clear
Visibility: 10 miles , 16 km
2018/06/25 02:50 KWHP 250250Z 12006KT 10SM SKC 21/13 A2994 RMK LAST
 
KBUR - Burbank, California, USA
Distance from station: SSW 22mi, 35km
Updated: Mon, 25-Jun-2018 5:53am PDT
Mist, Overcast
Mist, Overcast
 Wind from calm
Wind: Calm
Temperature: 61°F , 16°C
Dew Point: 57°F , 14°C
Humidity: 88%
Barometer: 29.96 inHg , 1014.6 hPa
Summary: Mist
Clouds: Overcast
Visibility: 4 miles , 6 km
Cloud details: Overcast 1100 ft
2018/06/25 12:53 KBUR 251253Z 00000KT 4SM BR OVC011 16/14 A2996 RMK AO2 SLP133 T01610144
KVNY - Van Nuys, California, USA
Distance from station: SW 25mi, 40km
Updated: Mon, 25-Jun-2018 5:51am PDT
Overcast
Overcast
 Wind from calm
Wind: Calm
Temperature: 63°F , 17°C
Dew Point: 57°F , 14°C
Humidity: 83%
Barometer: 29.96 inHg , 1014.6 hPa
Clouds: Overcast
Visibility: 10 miles , 16 km
Cloud details: Overcast 1000 ft
2018/06/25 12:51 KVNY 251251Z AUTO 00000KT 10SM OVC010 17/14 A2996 RMK AO2 SLP137 T01670139
 
KEDW - Edwards Afb, California, USA
Distance from station: NNE 33mi, 53km
Updated: Mon, 25-Jun-2018 5:58am PDT
Clear
Clear
 Wind from SSW
Wind: SSW 12 mph , 19 km/h
Temperature: 66°F , 19°C
Dew Point: 41°F , 5°C
Humidity: 40%
Barometer: 29.90 inHg , 1012.5 hPa
Clouds: Clear
Visibility: 90 miles , 144 km
2018/06/25 12:58 KEDW 251258Z 20010KT 90SM CLR 19/05 A2990 RMK AO2A SLP100 T01870052
KSMO - Santa Monica, California, USA
Distance from station: SSW 35mi, 57km
Updated: Mon, 25-Jun-2018 5:51am PDT
Overcast
Overcast
 Wind from calm
Wind: Calm
Temperature: 63°F , 17°C
Dew Point: 55°F , 13°C
Humidity: 77%
Barometer: 29.96 inHg , 1014.6 hPa
Clouds: Overcast
Visibility: 10 miles , 16 km
Cloud details: Overcast 1600 ft
2018/06/25 12:51 KSMO 251251Z AUTO 00000KT 10SM OVC016 17/13 A2996 RMK AO2 SLP145 T01720133
 
KLAX - Los Angeles, California, USA
Distance from station: SSW 39mi, 63km
Updated: Mon, 25-Jun-2018 5:53am PDT
Overcast
Overcast
 Wind from ESE
Wind: ESE 6 mph , 9 km/h
Temperature: 64°F , 18°C
Dew Point: 55°F , 13°C
Humidity: 73%
Barometer: 29.96 inHg , 1014.6 hPa
Clouds: Overcast
Visibility: 10 miles , 16 km
Cloud details: Overcast 1700 ft
2018/06/25 12:53 KLAX 251253Z 12005KT 10SM OVC017 18/13 A2996 RMK AO2 SLP143 T01830133 $
KMHV - Mojave, California, USA
Distance from station: N 41mi, 66km
Updated: Mon, 25-Jun-2018 6:40am PDT
Clear
Clear
 Wind from calm
Wind: Calm
Temperature: 72°F , 22°C
Dew Point: 43°F , 6°C
Humidity: 36%
Barometer: 29.94 inHg , 1013.9 hPa
Clouds: Clear
Visibility: 7 miles , 11 km
2018/06/25 13:40 KMHV 251340Z AUTO 00000KT 7SM CLR 22/06 A2994 RMK A01
 
KFUL - Fullerton, California, USA
Distance from station: SSE 44mi, 70km
Updated: Mon, 25-Jun-2018 5:53am PDT
Overcast
Overcast
 Wind from calm
Wind: Calm
Temperature: 64°F , 18°C
Dew Point: 57°F , 14°C
Humidity: 78%
Barometer: 29.96 inHg , 1014.6 hPa
Clouds: Overcast
Visibility: 10 miles , 16 km
Cloud details: Overcast 1600 ft
2018/06/25 12:53 KFUL 251253Z AUTO 00000KT 10SM OVC016 18/14 A2996 RMK AO2 SLP143 T01780139
KONT - Ontario, California, USA
Distance from station: SE 45mi, 72km
Updated: Mon, 25-Jun-2018 6:06am PDT
Mist, Partly cloudy
Mist, Partly cloudy
 Wind from calm
Wind: Calm
Temperature: 59°F , 15°C
Dew Point: 55°F , 13°C
Humidity: 88%
Barometer: 29.97 inHg , 1014.9 hPa
Summary: Mist
Clouds: Partly cloudy
Visibility: 5 miles , 8 km
Cloud details: Partly cloudy 1000 ft
2018/06/25 13:06 KONT 251306Z 00000KT 5SM BR SCT010 15/13 A2997 RMK AO2 T01500128
 
KLGB - Long Beach, California, USA
Distance from station: S 46mi, 74km
Updated: Mon, 25-Jun-2018 5:53am PDT
Overcast
Overcast
 Wind from SE
Wind: SE 6 mph , 9 km/h
Temperature: 64°F , 18°C
Dew Point: 55°F , 13°C
Humidity: 73%
Barometer: 29.96 inHg , 1014.6 hPa
Clouds: Overcast
Visibility: 10 miles , 16 km
Cloud details: Overcast 1600 ft
2018/06/25 12:53 KLGB 251253Z 13005KT 10SM OVC016 18/13 A2996 RMK AO2 SLP145 T01780133 $
KVCV - Victorville, California, USA
Distance from station: E 46mi, 74km
Updated: Mon, 25-Jun-2018 5:55am PDT
Clear
Clear
 Wind from calm
Wind: Calm
Barometer: 29.96 inHg , 1014.6 hPa
Clouds: Clear
Visibility: 10 miles , 16 km
2018/06/25 12:55 KVCV 251255Z 00000KT 10SM SKC A2996
 
KTSP - Tehachapi, California, USA
Distance from station: NNW 48mi, 77km
Updated: Mon, 25-Jun-2018 6:35am PDT
Clear
Clear
 Wind from calm
Wind: Calm
Barometer: 30.06 inHg , 1017.9 hPa
Clouds: Clear
Visibility: 10 miles , 16 km
2018/06/25 13:35 KTSP 251335Z AUTO 00000KT 10SM CLR A3006 RMK AO2